createdAt,value
2022-08-11T00:00:29.936Z,21
2022-08-11T00:02:13.639Z,21
2022-08-11T00:03:57.336Z,21
2022-08-11T00:05:41.049Z,21
2022-08-11T00:07:24.749Z,20.9
2022-08-11T00:09:08.456Z,20.9
2022-08-11T00:10:52.159Z,20.8
2022-08-11T00:12:35.863Z,20.8
2022-08-11T00:14:19.552Z,20.8
2022-08-11T00:16:03.257Z,20.8
2022-08-11T00:17:46.967Z,20.8
2022-08-11T00:19:30.649Z,20.8
2022-08-11T00:21:14.373Z,20.8
2022-08-11T00:22:58.056Z,20.8
2022-08-11T00:24:41.770Z,20.7
2022-08-11T00:26:25.461Z,20.7
2022-08-11T00:28:09.166Z,20.7
2022-08-11T00:29:52.881Z,20.7
2022-08-11T00:31:36.567Z,20.7
2022-08-11T00:33:20.267Z,20.7
2022-08-11T00:35:03.994Z,20.6
2022-08-11T00:36:47.685Z,20.6
2022-08-11T00:38:31.376Z,20.6
2022-08-11T00:40:15.098Z,20.6
2022-08-11T00:41:58.773Z,20.6
2022-08-11T00:43:42.494Z,20.6
2022-08-11T00:45:26.181Z,20.6
2022-08-11T00:47:09.896Z,20.5
2022-08-11T00:48:53.564Z,20.6
2022-08-11T00:50:37.271Z,20.5
2022-08-11T00:52:20.984Z,20.5
2022-08-11T00:54:04.698Z,20.5
2022-08-11T00:55:48.378Z,20.5
2022-08-11T00:57:32.090Z,20.5
2022-08-11T00:59:15.798Z,20.5
2022-08-11T01:00:59.492Z,20.5
2022-08-11T01:02:43.199Z,20.5
2022-08-11T01:04:26.886Z,20.5
2022-08-11T01:06:10.607Z,20.5
2022-08-11T01:07:54.300Z,20.5
2022-08-11T01:09:38.019Z,20.5
2022-08-11T01:11:21.680Z,20.4
2022-08-11T01:13:05.405Z,20.5
2022-08-11T01:14:49.109Z,20.4
2022-08-11T01:16:32.814Z,20.4
2022-08-11T01:18:16.505Z,20.4
2022-08-11T01:20:00.217Z,20.4
2022-08-11T01:21:43.910Z,20.4
2022-08-11T01:23:27.618Z,20.3
2022-08-11T01:25:11.316Z,20.3
2022-08-11T01:26:54.994Z,20.3
2022-08-11T01:28:38.700Z,20.3
2022-08-11T01:30:22.412Z,20.3
2022-08-11T01:32:06.120Z,20.3
2022-08-11T01:33:49.818Z,20.2
2022-08-11T01:35:33.530Z,20.2
2022-08-11T01:37:17.230Z,20.2
2022-08-11T01:39:00.926Z,20.2
2022-08-11T01:40:44.631Z,20.2
2022-08-11T01:42:28.311Z,20.2
2022-08-11T01:44:12.034Z,20.2
2022-08-11T01:45:55.740Z,20.2
2022-08-11T01:47:39.426Z,20.2
2022-08-11T01:49:23.125Z,20.2
2022-08-11T01:51:06.845Z,20.2
2022-08-11T01:52:50.544Z,20.1
2022-08-11T01:54:34.246Z,20.1
2022-08-11T01:56:17.970Z,20.1
2022-08-11T01:58:01.618Z,20
2022-08-11T01:59:45.350Z,20
2022-08-11T02:01:29.047Z,20
2022-08-11T02:03:12.748Z,20
2022-08-11T02:04:56.444Z,19.9
2022-08-11T02:06:40.141Z,19.9
2022-08-11T02:08:23.842Z,19.9
2022-08-11T02:10:07.547Z,19.9
2022-08-11T02:11:51.247Z,19.9
2022-08-11T02:13:34.955Z,19.9
2022-08-11T02:15:18.651Z,19.9
2022-08-11T02:17:02.356Z,19.9
2022-08-11T02:18:46.063Z,19.9
2022-08-11T02:20:29.762Z,19.9
2022-08-11T02:22:13.463Z,19.9
2022-08-11T02:23:57.169Z,19.9
2022-08-11T02:25:40.866Z,19.9
2022-08-11T02:27:24.560Z,19.9
2022-08-11T02:29:08.272Z,19.8
2022-08-11T02:30:51.979Z,19.8
2022-08-11T02:32:35.696Z,19.8
2022-08-11T02:34:19.403Z,19.8
2022-08-11T02:36:03.086Z,19.8
2022-08-11T02:37:46.778Z,19.8
2022-08-11T02:39:30.477Z,19.8
2022-08-11T02:41:14.187Z,19.8
2022-08-11T02:42:57.879Z,19.7
2022-08-11T02:44:41.583Z,19.7
2022-08-11T02:46:25.289Z,19.7
2022-08-11T02:48:09.008Z,19.7
2022-08-11T02:49:52.699Z,19.6
2022-08-11T02:51:36.391Z,19.6
2022-08-11T02:53:20.086Z,19.6
2022-08-11T02:55:03.805Z,19.6
2022-08-11T02:56:47.489Z,19.6
2022-08-11T02:58:31.189Z,19.6
2022-08-11T03:00:14.887Z,19.6
2022-08-11T03:01:58.592Z,19.6
2022-08-11T03:03:42.315Z,19.6
2022-08-11T03:05:26.023Z,19.6
2022-08-11T03:07:09.711Z,19.5
2022-08-11T03:08:53.415Z,19.5
2022-08-11T03:10:37.112Z,19.5
2022-08-11T03:12:20.834Z,19.5
2022-08-11T03:14:04.523Z,19.5
2022-08-11T03:15:48.230Z,19.5
2022-08-11T03:17:31.927Z,19.4
2022-08-11T03:19:15.624Z,19.4
2022-08-11T03:20:59.332Z,19.4
2022-08-11T03:22:43.019Z,19.4
2022-08-11T03:24:26.731Z,19.4
2022-08-11T03:26:10.431Z,19.4
2022-08-11T03:27:54.138Z,19.3
2022-08-11T03:29:37.835Z,19.3
2022-08-11T03:31:21.542Z,19.3
2022-08-11T03:33:05.236Z,19.3
2022-08-11T03:34:48.943Z,19.3
2022-08-11T03:36:32.656Z,19.3
2022-08-11T03:38:16.348Z,19.2
2022-08-11T03:40:00.060Z,19.2
2022-08-11T03:41:43.775Z,19.2
2022-08-11T03:43:27.461Z,19.2
2022-08-11T03:45:11.165Z,19.2
2022-08-11T03:46:54.857Z,19.2
2022-08-11T03:48:38.600Z,19.2
2022-08-11T03:50:22.258Z,19.2
2022-08-11T03:52:05.987Z,19.1
2022-08-11T03:53:49.677Z,19.1
2022-08-11T03:55:33.367Z,19.1
2022-08-11T03:57:17.085Z,19.1
2022-08-11T03:59:00.784Z,19.1
2022-08-11T04:00:44.484Z,19.1
2022-08-11T04:02:28.171Z,19.1
2022-08-11T04:04:11.874Z,19.1
2022-08-11T04:05:55.606Z,19.1
2022-08-11T04:07:39.281Z,19.1
2022-08-11T04:09:22.969Z,19.1
2022-08-11T04:11:06.689Z,19.1
2022-08-11T04:12:50.388Z,19.1
2022-08-11T04:14:34.083Z,19
2022-08-11T04:16:17.796Z,19
2022-08-11T04:18:01.480Z,19
2022-08-11T04:19:45.193Z,19
2022-08-11T04:21:28.894Z,19
2022-08-11T04:23:12.606Z,19
2022-08-11T04:24:56.295Z,19
2022-08-11T04:26:39.993Z,19
2022-08-11T04:28:23.704Z,19
2022-08-11T04:30:07.401Z,19.1
2022-08-11T04:31:51.116Z,19.1
2022-08-11T04:33:34.808Z,19
2022-08-11T04:35:18.550Z,18.9
2022-08-11T04:37:02.219Z,18.8
2022-08-11T04:38:45.920Z,18.8
2022-08-11T04:40:29.610Z,18.7
2022-08-11T04:42:13.316Z,18.7
2022-08-11T04:43:57.019Z,18.7
2022-08-11T04:45:40.725Z,18.7
2022-08-11T04:47:24.419Z,18.6
2022-08-11T04:49:08.130Z,18.7
2022-08-11T04:50:51.825Z,19
2022-08-11T04:52:35.520Z,19.2
2022-08-11T04:54:19.233Z,19.2
2022-08-11T04:56:02.914Z,19.4
2022-08-11T04:57:46.631Z,19.6
2022-08-11T04:59:30.343Z,19.6
2022-08-11T05:01:14.044Z,19.6
2022-08-11T05:02:57.748Z,19.7
2022-08-11T05:04:41.430Z,19.8
2022-08-11T05:06:25.122Z,19.9
2022-08-11T05:08:08.828Z,20
2022-08-11T05:09:52.543Z,20.1
2022-08-11T05:11:36.245Z,20.2
2022-08-11T05:13:19.950Z,20.3
2022-08-11T05:15:03.663Z,20.3
2022-08-11T05:16:47.369Z,20.4
2022-08-11T05:18:31.073Z,20.5
2022-08-11T05:20:14.764Z,20.6
2022-08-11T05:21:58.479Z,20.7
2022-08-11T05:23:42.171Z,20.8
2022-08-11T05:25:25.869Z,20.8
2022-08-11T05:27:09.567Z,20.9
2022-08-11T05:28:53.272Z,21
2022-08-11T05:30:36.969Z,21
2022-08-11T05:32:20.686Z,21
2022-08-11T05:34:04.395Z,21.1
2022-08-11T05:35:48.094Z,21.1
2022-08-11T05:37:31.788Z,21.1
2022-08-11T05:39:15.487Z,21.2
2022-08-11T05:40:59.195Z,21.2
2022-08-11T05:42:42.902Z,21.2
2022-08-11T05:44:26.602Z,21.2
2022-08-11T05:46:10.288Z,21.2
2022-08-11T05:47:54.010Z,21.3
2022-08-11T05:49:37.709Z,21.3
2022-08-11T05:51:21.419Z,21.3
2022-08-11T05:53:05.124Z,21.4
2022-08-11T05:54:48.836Z,21.4
2022-08-11T05:56:32.551Z,21.4
2022-08-11T05:58:16.205Z,21.4
2022-08-11T05:59:59.938Z,21.4
2022-08-11T06:01:43.620Z,21.4
2022-08-11T06:03:27.340Z,21.3
2022-08-11T06:05:11.034Z,21.3
2022-08-11T06:06:54.732Z,21.2
2022-08-11T06:08:38.424Z,21.2
2022-08-11T06:10:22.126Z,21.2
2022-08-11T06:12:05.845Z,21.2
2022-08-11T06:13:49.538Z,21.2
2022-08-11T06:15:33.259Z,21.2
2022-08-11T06:17:16.955Z,21.3
2022-08-11T06:19:00.653Z,21.3
2022-08-11T06:20:44.341Z,21.4
2022-08-11T06:22:28.064Z,21.4
2022-08-11T06:24:11.756Z,21.5
2022-08-11T06:25:55.468Z,21.6
2022-08-11T06:27:39.164Z,21.6
2022-08-11T06:29:22.861Z,21.7
2022-08-11T06:31:06.582Z,21.9
2022-08-11T06:32:50.272Z,22
2022-08-11T06:34:33.977Z,22.1
2022-08-11T06:36:17.653Z,22.2
2022-08-11T06:38:01.372Z,22.3
2022-08-11T06:39:45.068Z,22.5
2022-08-11T06:41:28.774Z,22.6
2022-08-11T06:43:12.473Z,22.8
2022-08-11T06:44:56.183Z,22.9
2022-08-11T06:46:39.870Z,23
2022-08-11T06:48:23.571Z,23.1
2022-08-11T06:50:07.268Z,23.3
2022-08-11T06:51:51.000Z,23.4
2022-08-11T06:53:34.699Z,23.3
2022-08-11T06:55:18.394Z,23.5
2022-08-11T06:57:02.085Z,23.5
2022-08-11T06:58:45.792Z,23.6
2022-08-11T07:00:29.485Z,23.7
2022-08-11T07:02:13.198Z,23.6
2022-08-11T07:03:56.907Z,23.7
2022-08-11T07:05:40.599Z,23.8
2022-08-11T07:07:24.304Z,23.7
2022-08-11T07:09:08.034Z,23.7
2022-08-11T07:10:51.715Z,23.7
2022-08-11T07:12:35.409Z,23.6
2022-08-11T07:14:19.106Z,23.7
2022-08-11T07:16:02.810Z,23.7
2022-08-11T07:17:46.509Z,23.8
2022-08-11T07:19:30.209Z,23.9
2022-08-11T07:21:13.892Z,23.9
2022-08-11T07:22:57.614Z,24
2022-08-11T07:24:41.300Z,24.1
2022-08-11T07:26:24.999Z,24.2
2022-08-11T07:28:08.685Z,24.2
2022-08-11T07:29:52.408Z,24.2
2022-08-11T07:31:36.113Z,24.2
2022-08-11T07:33:19.808Z,24.2
2022-08-11T07:35:03.519Z,24.2
2022-08-11T07:38:30.915Z,24.2
2022-08-11T07:40:14.635Z,24.2
2022-08-11T07:41:58.331Z,24.2
2022-08-11T07:43:42.040Z,24.3
2022-08-11T07:45:25.736Z,24.3
2022-08-11T07:47:09.439Z,24.3
2022-08-11T07:48:53.145Z,24.4
2022-08-11T07:50:36.837Z,24.4
2022-08-11T07:52:20.559Z,24.5
2022-08-11T07:54:04.253Z,24.5
2022-08-11T07:55:47.961Z,24.5
2022-08-11T07:57:31.663Z,24.6
2022-08-11T07:59:15.410Z,24.6
2022-08-11T08:00:59.071Z,24.6
2022-08-11T08:02:42.759Z,24.6
2022-08-11T08:04:26.489Z,24.7
2022-08-11T08:06:10.190Z,24.7
2022-08-11T08:07:53.875Z,24.8
2022-08-11T08:09:37.575Z,24.8
2022-08-11T08:11:21.282Z,24.8
2022-08-11T08:13:05.008Z,24.8
2022-08-11T08:14:48.701Z,24.8
2022-08-11T08:16:32.381Z,24.9
2022-08-11T08:18:16.098Z,24.9
2022-08-11T08:19:59.775Z,24.9
2022-08-11T08:21:43.504Z,24.9
2022-08-11T08:23:27.213Z,24.9
2022-08-11T08:25:10.897Z,24.9
2022-08-11T08:26:54.610Z,25
2022-08-11T08:28:38.310Z,25
2022-08-11T08:30:22.002Z,25
2022-08-11T08:32:05.718Z,25
2022-08-11T08:33:49.420Z,25
2022-08-11T08:35:33.117Z,25
2022-08-11T08:37:16.827Z,25
2022-08-11T08:45:55.313Z,25
2022-08-11T08:47:39.019Z,25.1
2022-08-11T08:49:22.705Z,25.1
2022-08-11T08:51:07.968Z,25.1
2022-08-11T08:52:50.152Z,25.1
2022-08-11T08:54:33.826Z,25.1
2022-08-11T08:56:17.531Z,25
2022-08-11T08:58:01.224Z,25.1
2022-08-11T08:59:44.915Z,25.1
2022-08-11T09:01:28.629Z,25.1
2022-08-11T09:03:12.306Z,25
2022-08-11T09:04:56.028Z,25
2022-08-11T09:06:39.730Z,25.1
2022-08-11T09:08:23.425Z,25
2022-08-11T09:10:07.124Z,25
2022-08-11T09:11:50.817Z,25
2022-08-11T09:13:34.527Z,25
2022-08-11T09:15:18.223Z,25.1
2022-08-11T09:17:01.908Z,25
2022-08-11T09:18:45.633Z,25
2022-08-11T09:20:29.336Z,25
2022-08-11T09:22:13.032Z,25
2022-08-11T09:23:56.724Z,25
2022-08-11T09:25:40.420Z,25
2022-08-11T09:27:24.128Z,25
2022-08-11T09:29:07.839Z,25
2022-08-11T09:30:51.538Z,25
2022-08-11T09:32:35.243Z,25
2022-08-11T09:34:18.947Z,25
2022-08-11T09:36:02.649Z,25
2022-08-11T09:37:46.319Z,25
2022-08-11T09:39:30.025Z,25
2022-08-11T09:41:13.732Z,25
2022-08-11T09:42:57.443Z,25
2022-08-11T09:44:41.121Z,25
2022-08-11T09:46:24.831Z,25
2022-08-11T09:48:08.539Z,25
2022-08-11T09:49:52.246Z,25
2022-08-11T09:51:35.925Z,25
2022-08-11T09:53:19.641Z,25
2022-08-11T09:55:03.346Z,25
2022-08-11T09:56:47.045Z,25
2022-08-11T09:58:30.736Z,25
2022-08-11T10:00:14.438Z,25
2022-08-11T10:01:58.157Z,25
2022-08-11T10:03:41.853Z,25
2022-08-11T10:05:25.544Z,25
2022-08-11T10:07:09.249Z,25
2022-08-11T10:08:52.959Z,25
2022-08-11T10:10:36.658Z,25
2022-08-11T10:12:20.378Z,25
2022-08-11T10:14:04.073Z,25
2022-08-11T10:15:47.770Z,25
2022-08-11T10:17:31.493Z,25
2022-08-11T10:19:15.169Z,25
2022-08-11T10:20:58.874Z,25
2022-08-11T10:22:42.587Z,25
2022-08-11T10:24:26.279Z,25
2022-08-11T10:26:09.993Z,25.1
2022-08-11T10:27:53.698Z,25.2
2022-08-11T10:29:37.395Z,25.3
2022-08-11T10:31:21.100Z,25.3
2022-08-11T10:33:04.813Z,25.4
2022-08-11T10:36:32.187Z,25.5
2022-08-11T10:38:15.904Z,25.5
2022-08-11T10:39:59.603Z,25.5
2022-08-11T10:41:43.288Z,25.5
2022-08-11T10:43:26.990Z,25.6
2022-08-11T10:45:10.706Z,25.6
2022-08-11T10:46:54.402Z,25.6
2022-08-11T10:48:38.088Z,25.6
2022-08-11T10:50:21.811Z,25.6
2022-08-11T10:52:05.506Z,25.6
2022-08-11T10:53:49.211Z,25.6
2022-08-11T10:55:32.895Z,25.6
2022-08-11T10:57:16.602Z,25.7
2022-08-11T10:59:00.301Z,25.6
2022-08-11T11:00:43.999Z,25.7
2022-08-11T11:02:27.707Z,25.7
2022-08-11T11:04:11.406Z,25.7
2022-08-11T11:05:55.097Z,25.7
2022-08-11T11:07:38.819Z,25.7
2022-08-11T11:09:22.500Z,25.7
2022-08-11T11:11:06.211Z,25.7
2022-08-11T11:12:49.906Z,25.7
2022-08-11T11:14:33.616Z,25.7
2022-08-11T11:16:17.316Z,25.7
2022-08-11T11:18:01.013Z,25.7
2022-08-11T11:19:44.719Z,25.7
2022-08-11T11:21:28.430Z,25.8
2022-08-11T11:23:12.115Z,25.8
2022-08-11T11:24:55.829Z,25.7
2022-08-11T11:26:39.536Z,25.7
2022-08-11T11:28:23.233Z,25.7
2022-08-11T11:30:06.933Z,25.7
2022-08-11T11:31:50.652Z,25.7
2022-08-11T11:33:34.350Z,25.8
2022-08-11T11:35:18.043Z,25.8
2022-08-11T11:37:01.746Z,25.8
2022-08-11T11:38:45.442Z,25.8
2022-08-11T11:40:29.157Z,25.8
2022-08-11T11:42:12.843Z,25.8
2022-08-11T11:43:56.561Z,25.8
2022-08-11T11:45:40.250Z,25.8
2022-08-11T11:47:24.014Z,25.8
2022-08-11T11:49:07.659Z,25.9
2022-08-11T11:50:51.356Z,25.9
2022-08-11T11:52:35.057Z,25.9
2022-08-11T11:54:18.749Z,25.9
2022-08-11T11:56:02.460Z,25.9
2022-08-11T11:57:46.180Z,25.9
2022-08-11T11:59:29.853Z,25.9
2022-08-11T12:01:13.559Z,25.9
2022-08-11T12:02:57.299Z,25.9
2022-08-11T12:04:40.978Z,26
2022-08-11T12:06:24.667Z,26
2022-08-11T12:08:08.363Z,25.9
2022-08-11T12:09:52.075Z,25.9
2022-08-11T12:11:35.773Z,25.9
2022-08-11T12:13:19.468Z,25.9
2022-08-11T12:15:03.187Z,25.9
2022-08-11T12:16:46.906Z,25.9
2022-08-11T12:18:30.583Z,25.8
2022-08-11T12:20:14.270Z,25.8
2022-08-11T12:21:57.976Z,25.9
2022-08-11T12:23:41.663Z,25.9
2022-08-11T12:25:25.381Z,25.9
2022-08-11T12:27:09.059Z,25.8
2022-08-11T12:28:52.773Z,25.8
2022-08-11T12:30:36.467Z,25.8
2022-08-11T12:32:20.177Z,25.8
2022-08-11T12:34:03.870Z,25.8
2022-08-11T12:35:47.588Z,25.8
2022-08-11T12:37:31.286Z,25.8
2022-08-11T12:39:14.980Z,25.8
2022-08-11T12:40:58.672Z,25.7
2022-08-11T12:42:42.372Z,25.7
2022-08-11T12:44:26.081Z,25.7
2022-08-11T12:46:09.787Z,25.7
2022-08-11T12:47:53.471Z,25.7
2022-08-11T12:49:37.214Z,25.7
2022-08-11T12:51:20.879Z,25.7
2022-08-11T12:53:04.594Z,25.7
2022-08-11T12:54:48.300Z,25.7
2022-08-11T12:56:31.992Z,25.7
2022-08-11T12:58:15.696Z,25.7
2022-08-11T12:59:59.415Z,25.7
2022-08-11T13:01:43.108Z,25.7
2022-08-11T13:03:26.817Z,25.7
2022-08-11T13:05:10.514Z,25.7
2022-08-11T13:06:54.222Z,25.7
2022-08-11T13:08:37.927Z,25.7
2022-08-11T13:10:21.627Z,25.6
2022-08-11T13:12:05.311Z,25.6
2022-08-11T13:13:49.029Z,25.6
2022-08-11T13:15:32.720Z,25.6
2022-08-11T13:17:16.422Z,25.6
2022-08-11T13:19:00.145Z,25.6
2022-08-11T13:20:43.836Z,25.6
2022-08-11T13:22:27.541Z,25.6
2022-08-11T13:24:11.242Z,25.6
2022-08-11T13:25:54.953Z,25.6
2022-08-11T13:27:38.651Z,25.6
2022-08-11T13:29:22.341Z,25.6
2022-08-11T13:31:06.052Z,25.6
2022-08-11T13:32:49.745Z,25.6
2022-08-11T13:34:33.473Z,25.6
2022-08-11T13:36:17.152Z,25.6
2022-08-11T13:38:00.863Z,25.6
2022-08-11T13:39:44.561Z,25.7
2022-08-11T13:41:28.270Z,25.7
2022-08-11T13:43:11.997Z,25.7
2022-08-11T13:44:55.675Z,25.7
2022-08-11T13:46:39.363Z,25.7
2022-08-11T13:48:23.076Z,25.7
2022-08-11T13:50:06.784Z,25.7
2022-08-11T13:51:50.495Z,25.7
2022-08-11T13:53:34.166Z,25.7
2022-08-11T13:55:17.885Z,25.7
2022-08-11T13:57:01.593Z,25.7
2022-08-11T13:58:45.299Z,25.7
2022-08-11T14:00:28.982Z,25.8
2022-08-11T14:02:12.706Z,25.7
2022-08-11T14:03:56.387Z,25.7
2022-08-11T14:05:40.098Z,25.7
2022-08-11T14:07:23.811Z,25.7
2022-08-11T14:09:07.504Z,25.7
2022-08-11T14:10:51.213Z,25.7
2022-08-11T14:12:34.894Z,25.7
2022-08-11T14:14:18.618Z,25.7
2022-08-11T14:16:02.318Z,25.7
2022-08-11T14:17:46.025Z,25.7
2022-08-11T14:19:29.727Z,25.7
2022-08-11T14:21:13.415Z,25.7
2022-08-11T14:22:57.137Z,25.7
2022-08-11T14:24:40.818Z,25.7
2022-08-11T14:26:24.559Z,25.7
2022-08-11T14:28:08.226Z,25.7
2022-08-11T14:29:51.949Z,25.7
2022-08-11T14:31:35.641Z,25.7
2022-08-11T14:33:19.345Z,25.7
2022-08-11T14:35:03.049Z,25.7
2022-08-11T14:36:46.733Z,25.7
2022-08-11T14:38:30.442Z,25.7
2022-08-11T14:40:14.157Z,25.7
2022-08-11T14:41:57.863Z,25.7
2022-08-11T14:43:41.559Z,25.7
2022-08-11T14:45:25.248Z,25.7
2022-08-11T14:47:08.956Z,25.7
2022-08-11T14:48:52.668Z,25.7
2022-08-11T14:50:36.387Z,25.7
2022-08-11T14:52:20.061Z,25.6
2022-08-11T14:54:03.793Z,25.7
2022-08-11T14:55:47.478Z,25.7
2022-08-11T14:57:31.180Z,25.6
2022-08-11T14:59:14.877Z,25.6
2022-08-11T15:00:58.583Z,25.6
2022-08-11T15:02:42.309Z,25.6
2022-08-11T15:04:25.985Z,25.6
2022-08-11T15:06:09.676Z,25.6
2022-08-11T15:07:53.378Z,25.6
2022-08-11T15:09:37.099Z,25.6
2022-08-11T15:11:20.787Z,25.6
2022-08-11T15:13:04.485Z,25.6
2022-08-11T15:14:48.200Z,25.6
2022-08-11T15:16:31.892Z,25.6
2022-08-11T15:18:15.607Z,25.6
2022-08-11T15:19:59.293Z,25.5
2022-08-11T15:21:42.991Z,25.5
2022-08-11T15:23:26.708Z,25.5
2022-08-11T15:25:10.398Z,25.5
2022-08-11T15:26:54.121Z,25.5
2022-08-11T15:28:37.790Z,25.5
2022-08-11T15:30:21.504Z,25.5
2022-08-11T15:32:05.219Z,25.5
2022-08-11T15:33:48.894Z,25.5
2022-08-11T15:35:32.595Z,25.5
2022-08-11T15:37:16.308Z,25.5
2022-08-11T15:38:59.996Z,25.5
2022-08-11T15:40:43.682Z,25.5
2022-08-11T15:42:27.391Z,25.5
2022-08-11T15:44:11.105Z,25.5
2022-08-11T15:45:54.802Z,25.4
2022-08-11T15:47:38.501Z,25.4
2022-08-11T15:49:22.207Z,25.4
2022-08-11T15:51:05.898Z,25.5
2022-08-11T15:52:49.597Z,25.5
2022-08-11T15:54:33.317Z,25.5
2022-08-11T15:56:17.006Z,25.4
2022-08-11T15:58:00.706Z,25.4
2022-08-11T15:59:44.403Z,25.4
2022-08-11T16:01:28.095Z,25.4
2022-08-11T16:03:11.811Z,25.4
2022-08-11T16:04:55.507Z,25.4
2022-08-11T16:06:39.217Z,25.4
2022-08-11T16:08:22.896Z,25.4
2022-08-11T16:10:06.598Z,25.4
2022-08-11T16:11:50.290Z,25.4
2022-08-11T16:13:33.998Z,25.4
2022-08-11T16:15:17.704Z,25.4
2022-08-11T16:17:01.407Z,25.4
2022-08-11T16:18:45.106Z,25.4
2022-08-11T16:20:28.815Z,25.4
2022-08-11T16:22:12.510Z,25.3
2022-08-11T16:25:39.903Z,25.3
2022-08-11T16:27:23.614Z,25.3
2022-08-11T16:29:07.311Z,25.3
2022-08-11T16:30:51.011Z,25.3
2022-08-11T16:32:34.698Z,25.3
2022-08-11T16:34:18.415Z,25.3
2022-08-11T16:36:02.108Z,25.3
2022-08-11T16:37:45.809Z,25.3
2022-08-11T16:39:29.509Z,25.3
2022-08-11T16:41:13.229Z,25.3
2022-08-11T16:42:56.927Z,25.3
2022-08-11T16:44:40.611Z,25.3
2022-08-11T16:46:24.321Z,25.2
2022-08-11T16:48:08.037Z,25.2
2022-08-11T16:49:51.723Z,25.2
2022-08-11T16:51:35.416Z,25.2
2022-08-11T16:53:19.134Z,25.2
2022-08-11T16:55:02.821Z,25.3
2022-08-11T16:56:46.518Z,25.3
2022-08-11T16:58:30.216Z,25.3
2022-08-11T17:00:13.927Z,25.3
2022-08-11T17:01:57.643Z,25.3
2022-08-11T17:03:41.322Z,25.3
2022-08-11T17:05:25.032Z,25.3
2022-08-11T17:07:08.722Z,25.3
2022-08-11T17:08:52.435Z,25.2
2022-08-11T17:10:36.133Z,25.2
2022-08-11T17:12:19.832Z,25.2
2022-08-11T17:14:03.538Z,25.2
2022-08-11T17:15:47.245Z,25.2
2022-08-11T17:17:30.932Z,25.2
2022-08-11T17:19:14.623Z,25.2
2022-08-11T17:20:58.333Z,25.2
2022-08-11T17:22:42.051Z,25.2
2022-08-11T17:24:25.740Z,25.2
2022-08-11T17:26:09.451Z,25.2
2022-08-11T17:27:53.155Z,25.2
2022-08-11T17:29:36.847Z,25.2
2022-08-11T17:31:20.557Z,25.2
2022-08-11T17:33:04.252Z,25.2
2022-08-11T17:34:47.958Z,25.1
2022-08-11T17:36:31.676Z,25.1
2022-08-11T17:38:15.362Z,25.1
2022-08-11T17:39:59.059Z,25.1
2022-08-11T17:41:42.763Z,25.1
2022-08-11T17:43:26.481Z,25.1
2022-08-11T17:45:10.172Z,25.1
2022-08-11T17:46:53.867Z,25.1
2022-08-11T17:48:37.576Z,25.1
2022-08-11T17:50:21.277Z,25.1
2022-08-11T17:52:04.966Z,25.1
2022-08-11T17:53:48.686Z,25.1
2022-08-11T17:55:32.382Z,25.1
2022-08-11T17:57:16.090Z,25
2022-08-11T17:58:59.794Z,25
2022-08-11T18:00:43.476Z,25
2022-08-11T18:02:27.193Z,25
2022-08-11T18:04:10.890Z,25
2022-08-11T18:05:54.590Z,25
2022-08-11T18:07:38.292Z,25
2022-08-11T18:09:22.033Z,25
2022-08-11T18:11:05.708Z,25
2022-08-11T18:12:49.406Z,25
2022-08-11T18:14:33.100Z,25
2022-08-11T18:16:16.802Z,25
2022-08-11T18:18:00.569Z,25
2022-08-11T18:19:44.215Z,24.9
2022-08-11T18:21:27.919Z,24.9
2022-08-11T18:23:11.612Z,24.9
2022-08-11T18:24:55.317Z,24.9
2022-08-11T18:26:39.033Z,24.9
2022-08-11T18:28:22.726Z,24.9
2022-08-11T18:30:06.430Z,24.9
2022-08-11T18:31:50.140Z,24.9
2022-08-11T18:33:33.845Z,24.9
2022-08-11T18:35:17.529Z,24.9
2022-08-11T18:37:01.234Z,24.9
2022-08-11T18:38:44.944Z,24.8
2022-08-11T18:40:28.657Z,24.8
2022-08-11T18:42:12.337Z,24.8
2022-08-11T18:43:56.047Z,24.8
2022-08-11T18:45:39.739Z,24.7
2022-08-11T18:47:23.455Z,24.7
2022-08-11T18:49:07.152Z,24.7
2022-08-11T18:50:50.840Z,24.6
2022-08-11T18:52:34.567Z,24.6
2022-08-11T18:54:18.252Z,24.6
2022-08-11T18:56:01.964Z,24.6
2022-08-11T18:57:45.658Z,24.5
2022-08-11T18:59:29.351Z,24.5
2022-08-11T19:01:13.060Z,24.5
2022-08-11T19:02:56.771Z,24.5
2022-08-11T19:04:40.471Z,24.4
2022-08-11T19:06:24.163Z,24.4
2022-08-11T19:08:07.873Z,24.4
2022-08-11T19:09:51.585Z,24.4
2022-08-11T19:11:35.288Z,24.3
2022-08-11T19:13:18.987Z,24.3
2022-08-11T19:15:02.682Z,24.3
2022-08-11T19:16:46.403Z,24.2
2022-08-11T19:18:30.102Z,24.2
2022-08-11T19:20:13.792Z,24.2
2022-08-11T19:21:57.503Z,24.1
2022-08-11T19:23:41.216Z,24.1
2022-08-11T19:25:24.907Z,24.1
2022-08-11T19:27:08.596Z,24
2022-08-11T19:28:52.309Z,24
2022-08-11T19:30:36.006Z,24
2022-08-11T19:32:19.723Z,23.9
2022-08-11T19:34:03.403Z,23.9
2022-08-11T19:35:47.124Z,23.9
2022-08-11T19:37:30.817Z,23.9
2022-08-11T19:39:14.511Z,23.8
2022-08-11T19:40:58.211Z,23.8
2022-08-11T19:42:41.938Z,23.8
2022-08-11T19:44:25.630Z,23.7
2022-08-11T19:46:09.321Z,23.7
2022-08-11T19:47:53.007Z,23.7
2022-08-11T19:49:36.719Z,23.6
2022-08-11T19:51:20.429Z,23.6
2022-08-11T19:53:04.119Z,23.6
2022-08-11T19:54:47.823Z,23.6
2022-08-11T19:56:31.528Z,23.5
2022-08-11T19:58:15.236Z,23.5
2022-08-11T19:59:58.923Z,23.4
2022-08-11T20:01:42.636Z,23.3
2022-08-11T20:03:26.331Z,23.2
2022-08-11T20:05:10.037Z,23.2
2022-08-11T20:06:53.713Z,23.2
2022-08-11T20:08:37.417Z,23.1
2022-08-11T20:10:21.126Z,23
2022-08-11T20:12:04.835Z,22.9
2022-08-11T20:13:48.534Z,22.9
2022-08-11T20:15:32.227Z,22.8
2022-08-11T20:17:15.929Z,22.7
2022-08-11T20:18:59.632Z,22.6
2022-08-11T20:20:43.332Z,22.5
2022-08-11T20:22:27.034Z,22.6
2022-08-11T20:24:10.718Z,22.6
2022-08-11T20:25:54.443Z,22.6
2022-08-11T20:27:38.147Z,22.6
2022-08-11T20:29:21.817Z,22.5
2022-08-11T20:31:05.572Z,22.5
2022-08-11T20:32:49.245Z,22.5
2022-08-11T20:34:32.936Z,22.4
2022-08-11T20:36:16.629Z,22.4
2022-08-11T20:38:00.340Z,22.3
2022-08-11T20:39:44.034Z,22.3
2022-08-11T20:41:27.739Z,22.2
2022-08-11T20:43:11.440Z,22.2
2022-08-11T20:44:55.150Z,22.2
2022-08-11T20:46:38.839Z,22.2
2022-08-11T20:48:22.548Z,22.2
2022-08-11T20:50:06.230Z,22.1
2022-08-11T20:51:49.945Z,22.1
2022-08-11T20:53:33.663Z,22
2022-08-11T20:55:17.351Z,22
2022-08-11T20:57:01.097Z,21.9
2022-08-11T20:58:44.779Z,21.8
2022-08-11T21:00:28.454Z,21.9
2022-08-11T21:02:12.217Z,21.9
2022-08-11T21:03:55.882Z,21.9
2022-08-11T21:05:39.582Z,21.9
2022-08-11T21:07:23.262Z,21.9
2022-08-11T21:09:06.982Z,21.8
2022-08-11T21:10:50.707Z,21.8
2022-08-11T21:12:34.380Z,21.7
2022-08-11T21:14:18.133Z,21.7
2022-08-11T21:16:01.807Z,21.7
2022-08-11T21:17:45.493Z,21.6
2022-08-11T21:19:29.194Z,21.6
2022-08-11T21:21:12.898Z,21.5
2022-08-11T21:22:56.610Z,21.5
2022-08-11T21:24:40.317Z,21.5
2022-08-11T21:26:24.000Z,21.5
2022-08-11T21:28:07.695Z,21.5
2022-08-11T21:29:51.410Z,21.5
2022-08-11T21:31:35.115Z,21.5
2022-08-11T21:33:18.806Z,21.5
2022-08-11T21:35:02.494Z,21.5
2022-08-11T21:36:46.211Z,21.5
2022-08-11T21:38:29.909Z,21.4
2022-08-11T21:40:13.612Z,21.5
2022-08-11T21:41:57.329Z,21.6
2022-08-11T21:43:41.029Z,21.6
2022-08-11T21:45:24.732Z,21.6
2022-08-11T21:47:08.434Z,21.7
2022-08-11T21:48:52.137Z,21.7
2022-08-11T21:50:35.850Z,21.8
2022-08-11T21:52:19.544Z,21.8
2022-08-11T21:54:03.246Z,21.8
2022-08-11T21:55:46.951Z,21.9
2022-08-11T21:57:30.649Z,21.9
2022-08-11T21:59:14.361Z,21.9
2022-08-11T22:00:58.064Z,21.9
2022-08-11T22:02:41.762Z,21.9
2022-08-11T22:04:25.481Z,21.9
2022-08-11T22:06:09.178Z,21.9
2022-08-11T22:07:52.890Z,21.9
2022-08-11T22:09:36.574Z,21.9
2022-08-11T22:11:20.273Z,21.9
2022-08-11T22:13:03.988Z,21.9
2022-08-11T22:14:47.701Z,21.9
2022-08-11T22:16:31.382Z,21.9
2022-08-11T22:18:15.104Z,21.8
2022-08-11T22:19:58.798Z,21.8
2022-08-11T22:21:42.512Z,21.8
2022-08-11T22:23:26.191Z,21.8
2022-08-11T22:25:09.902Z,21.8
2022-08-11T22:26:53.604Z,21.8
2022-08-11T22:28:37.305Z,21.7
2022-08-11T22:30:21.017Z,21.6
2022-08-11T22:32:04.710Z,21.6
2022-08-11T22:33:48.418Z,21.6
2022-08-11T22:35:32.146Z,21.6
2022-08-11T22:37:15.828Z,21.6
2022-08-11T22:38:59.524Z,21.6
2022-08-11T22:40:43.228Z,21.6
2022-08-11T22:42:26.935Z,21.6
2022-08-11T22:44:10.636Z,21.6
2022-08-11T22:45:54.334Z,21.6
2022-08-11T22:47:38.043Z,21.6
2022-08-11T22:49:21.754Z,21.5
2022-08-11T22:51:05.468Z,21.5
2022-08-11T22:52:49.150Z,21.5
2022-08-11T22:54:32.847Z,21.5
2022-08-11T22:56:16.559Z,21.5
2022-08-11T22:58:00.278Z,21.5
2022-08-11T22:59:43.960Z,21.4
2022-08-11T23:01:27.678Z,21.5
2022-08-11T23:03:11.357Z,21.5
2022-08-11T23:04:55.073Z,21.5
2022-08-11T23:06:38.744Z,21.5
2022-08-11T23:08:22.464Z,21.5
2022-08-11T23:10:06.175Z,21.5
2022-08-11T23:11:49.879Z,21.4
2022-08-11T23:13:33.558Z,21.4
2022-08-11T23:15:17.274Z,21.4
2022-08-11T23:17:00.969Z,21.4
2022-08-11T23:18:44.686Z,21.4
2022-08-11T23:20:28.368Z,21.4
2022-08-11T23:22:12.062Z,21.3
2022-08-11T23:23:55.789Z,21.3